sensor_id;sensor_type;location;lat;lon;timestamp;P1;durP1;ratioP1;P2;durP2;ratioP2
10637;SDS011;47007;49.252;8.904;2024-03-23T00:52:44;5.50;;;4.97;;
10637;SDS011;47007;49.252;8.904;2024-03-23T00:53:26;9.48;;;6.05;;
10637;SDS011;47007;49.252;8.904;2024-03-23T00:54:07;6.57;;;6.00;;
10637;SDS011;47007;49.252;8.904;2024-03-23T00:54:48;6.25;;;5.35;;
10637;SDS011;47007;49.252;8.904;2024-03-23T00:55:28;6.40;;;5.90;;
10637;SDS011;47007;49.252;8.904;2024-03-23T00:56:09;6.65;;;6.15;;
10637;SDS011;47007;49.252;8.904;2024-03-23T00:56:50;6.35;;;5.43;;
10637;SDS011;47007;49.252;8.904;2024-03-23T00:57:31;6.53;;;5.63;;
10637;SDS011;47007;49.252;8.904;2024-03-23T00:58:11;6.57;;;5.80;;
10637;SDS011;47007;49.252;8.904;2024-03-23T00:58:52;6.10;;;5.60;;
10637;SDS011;47007;49.252;8.904;2024-03-23T00:59:33;5.30;;;4.90;;
10637;SDS011;47007;49.252;8.904;2024-03-23T01:00:14;6.00;;;5.50;;
10637;SDS011;47007;49.252;8.904;2024-03-23T01:00:56;6.00;;;5.50;;
10637;SDS011;47007;49.252;8.904;2024-03-23T01:01:37;6.00;;;5.55;;
10637;SDS011;47007;49.252;8.904;2024-03-23T01:02:17;6.07;;;5.47;;
10637;SDS011;47007;49.252;8.904;2024-03-23T01:02:59;6.07;;;5.57;;
10637;SDS011;47007;49.252;8.904;2024-03-23T01:03:40;5.70;;;5.20;;
10637;SDS011;47007;49.252;8.904;2024-03-23T01:04:20;6.53;;;5.20;;
10637;SDS011;47007;49.252;8.904;2024-03-23T01:05:01;6.22;;;5.55;;
10637;SDS011;47007;49.252;8.904;2024-03-23T01:05:42;5.88;;;5.40;;
10637;SDS011;47007;49.252;8.904;2024-03-23T01:06:23;5.82;;;5.43;;
10637;SDS011;47007;49.252;8.904;2024-03-23T01:07:03;6.75;;;5.60;;
10637;SDS011;47007;49.252;8.904;2024-03-23T01:07:44;6.00;;;5.45;;
10637;SDS011;47007;49.252;8.904;2024-03-23T01:08:25;6.85;;;6.15;;
10637;SDS011;47007;49.252;8.904;2024-03-23T01:09:06;6.28;;;5.65;;
10637;SDS011;47007;49.252;8.904;2024-03-23T01:09:46;6.63;;;5.97;;
10637;SDS011;47007;49.252;8.904;2024-03-23T01:10:27;6.35;;;5.85;;
10637;SDS011;47007;49.252;8.904;2024-03-23T01:11:08;7.00;;;6.40;;
10637;SDS011;47007;49.252;8.904;2024-03-23T01:11:49;7.35;;;5.68;;
10637;SDS011;47007;49.252;8.904;2024-03-23T01:12:30;6.20;;;5.60;;
10637;SDS011;47007;49.252;8.904;2024-03-23T01:13:10;5.78;;;5.28;;
10637;SDS011;47007;49.252;8.904;2024-03-23T01:13:53;7.97;;;5.50;;
10637;SDS011;47007;49.252;8.904;2024-03-23T01:14:36;6.20;;;5.60;;
10637;SDS011;47007;49.252;8.904;2024-03-23T01:15:17;6.22;;;5.72;;
10637;SDS011;47007;49.252;8.904;2024-03-23T01:15:57;5.90;;;5.40;;
10637;SDS011;47007;49.252;8.904;2024-03-23T01:16:38;6.18;;;5.68;;
10637;SDS011;47007;49.252;8.904;2024-03-23T01:17:19;6.00;;;5.57;;
10637;SDS011;47007;49.252;8.904;2024-03-23T01:18:00;6.05;;;5.40;;
10637;SDS011;47007;49.252;8.904;2024-03-23T01:18:41;5.32;;;4.90;;
10637;SDS011;47007;49.252;8.904;2024-03-23T01:19:21;5.35;;;4.85;;
10637;SDS011;47007;49.252;8.904;2024-03-23T01:20:02;7.75;;;5.57;;
10637;SDS011;47007;49.252;8.904;2024-03-23T01:20:43;5.43;;;5.00;;
10637;SDS011;47007;49.252;8.904;2024-03-23T01:21:24;5.75;;;5.25;;
10637;SDS011;47007;49.252;8.904;2024-03-23T01:22:05;6.20;;;5.70;;
10637;SDS011;47007;49.252;8.904;2024-03-23T01:22:46;5.82;;;5.32;;
10637;SDS011;47007;49.252;8.904;2024-03-23T01:23:27;5.25;;;4.82;;
10637;SDS011;47007;49.252;8.904;2024-03-23T01:24:08;5.72;;;5.32;;
10637;SDS011;47007;49.252;8.904;2024-03-23T01:24:51;6.00;;;5.55;;
10637;SDS011;47007;49.252;8.904;2024-03-23T01:25:32;6.00;;;5.50;;
10637;SDS011;47007;49.252;8.904;2024-03-23T01:26:12;5.90;;;5.40;;
10637;SDS011;47007;49.252;8.904;2024-03-23T01:26:53;6.55;;;5.95;;
10637;SDS011;47007;49.252;8.904;2024-03-23T01:27:34;5.60;;;5.10;;
10637;SDS011;47007;49.252;8.904;2024-03-23T01:28:15;6.38;;;5.80;;
10637;SDS011;47007;49.252;8.904;2024-03-23T01:28:56;7.25;;;6.03;;
10637;SDS011;47007;49.252;8.904;2024-03-23T01:29:36;7.00;;;6.05;;
10637;SDS011;47007;49.252;8.904;2024-03-23T01:30:17;6.35;;;5.82;;
10637;SDS011;47007;49.252;8.904;2024-03-23T01:30:58;6.10;;;5.40;;
10637;SDS011;47007;49.252;8.904;2024-03-23T01:31:39;6.55;;;5.50;;
10637;SDS011;47007;49.252;8.904;2024-03-23T01:32:19;6.38;;;5.80;;
10637;SDS011;47007;49.252;8.904;2024-03-23T01:33:01;6.30;;;5.78;;
10637;SDS011;47007;49.252;8.904;2024-03-23T01:33:43;6.30;;;5.80;;
10637;SDS011;47007;49.252;8.904;2024-03-23T01:34:24;5.93;;;5.32;;
10637;SDS011;47007;49.252;8.904;2024-03-23T01:35:05;5.75;;;5.22;;
10637;SDS011;47007;49.252;8.904;2024-03-23T01:35:46;6.10;;;5.57;;
10637;SDS011;47007;49.252;8.904;2024-03-23T01:36:27;6.60;;;5.95;;
10637;SDS011;47007;49.252;8.904;2024-03-23T01:37:07;6.70;;;6.07;;
10637;SDS011;47007;49.252;8.904;2024-03-23T01:37:48;5.85;;;5.40;;
10637;SDS011;47007;49.252;8.904;2024-03-23T01:38:29;6.28;;;5.80;;
10637;SDS011;47007;49.252;8.904;2024-03-23T01:39:10;7.68;;;5.65;;
10637;SDS011;47007;49.252;8.904;2024-03-23T01:39:51;6.25;;;5.70;;
10637;SDS011;47007;49.252;8.904;2024-03-23T01:40:32;6.43;;;5.85;;
10637;SDS011;47007;49.252;8.904;2024-03-23T01:41:13;6.20;;;5.65;;
10637;SDS011;47007;49.252;8.904;2024-03-23T01:41:53;6.13;;;5.63;;
10637;SDS011;47007;49.252;8.904;2024-03-23T01:42:34;5.72;;;5.18;;
10637;SDS011;47007;49.252;8.904;2024-03-23T01:43:15;7.78;;;5.82;;
10637;SDS011;47007;49.252;8.904;2024-03-23T01:43:56;7.53;;;5.80;;
10637;SDS011;47007;49.252;8.904;2024-03-23T01:44:37;6.80;;;6.07;;
10637;SDS011;47007;49.252;8.904;2024-03-23T01:45:18;6.50;;;5.90;;
10637;SDS011;47007;49.252;8.904;2024-03-23T01:45:59;6.50;;;6.00;;
10637;SDS011;47007;49.252;8.904;2024-03-23T01:46:39;6.68;;;6.18;;
10637;SDS011;47007;49.252;8.904;2024-03-23T01:47:21;6.78;;;6.18;;
10637;SDS011;47007;49.252;8.904;2024-03-23T01:48:02;7.70;;;7.00;;
10637;SDS011;47007;49.252;8.904;2024-03-23T01:48:44;6.82;;;6.22;;
10637;SDS011;47007;49.252;8.904;2024-03-23T01:49:27;6.70;;;6.10;;
10637;SDS011;47007;49.252;8.904;2024-03-23T01:50:08;6.75;;;6.22;;
10637;SDS011;47007;49.252;8.904;2024-03-23T01:50:48;6.32;;;5.75;;
10637;SDS011;47007;49.252;8.904;2024-03-23T01:51:29;6.32;;;5.80;;
10637;SDS011;47007;49.252;8.904;2024-03-23T01:52:10;6.10;;;5.60;;
10637;SDS011;47007;49.252;8.904;2024-03-23T01:52:51;6.03;;;5.55;;
10637;SDS011;47007;49.252;8.904;2024-03-23T01:53:32;6.22;;;5.63;;
10637;SDS011;47007;49.252;8.904;2024-03-23T01:54:13;5.75;;;5.30;;
10637;SDS011;47007;49.252;8.904;2024-03-23T01:54:54;6.05;;;5.53;;
10637;SDS011;47007;49.252;8.904;2024-03-23T01:55:34;5.55;;;5.05;;
10637;SDS011;47007;49.252;8.904;2024-03-23T01:56:20;6.30;;;5.80;;
10637;SDS011;47007;49.252;8.904;2024-03-23T01:57:01;6.25;;;5.75;;
10637;SDS011;47007;49.252;8.904;2024-03-23T01:57:41;6.63;;;6.03;;
10637;SDS011;47007;49.252;8.904;2024-03-23T01:58:23;5.82;;;5.32;;
10637;SDS011;47007;49.252;8.904;2024-03-23T01:59:04;5.63;;;5.13;;
10637;SDS011;47007;49.252;8.904;2024-03-23T01:59:45;5.32;;;4.85;;
10637;SDS011;47007;49.252;8.904;2024-03-23T02:00:28;5.82;;;5.38;;
10637;SDS011;47007;49.252;8.904;2024-03-23T02:01:09;6.10;;;5.47;;
10637;SDS011;47007;49.252;8.904;2024-03-23T02:01:50;6.13;;;5.53;;
10637;SDS011;47007;49.252;8.904;2024-03-23T02:02:33;5.50;;;5.00;;
10637;SDS011;47007;49.252;8.904;2024-03-23T02:03:23;5.85;;;5.35;;
10637;SDS011;47007;49.252;8.904;2024-03-23T02:04:05;5.53;;;5.13;;
10637;SDS011;47007;49.252;8.904;2024-03-23T02:04:46;5.43;;;5.03;;
10637;SDS011;47007;49.252;8.904;2024-03-23T02:05:27;6.00;;;5.47;;
10637;SDS011;47007;49.252;8.904;2024-03-23T02:06:08;6.10;;;5.57;;
10637;SDS011;47007;49.252;8.904;2024-03-23T02:06:50;5.90;;;5.40;;
10637;SDS011;47007;49.252;8.904;2024-03-23T02:07:51;6.30;;;5.70;;
10637;SDS011;47007;49.252;8.904;2024-03-23T02:08:32;5.80;;;5.25;;
10637;SDS011;47007;49.252;8.904;2024-03-23T02:09:13;6.22;;;5.63;;
10637;SDS011;47007;49.252;8.904;2024-03-23T02:09:55;6.07;;;5.57;;
10637;SDS011;47007;49.252;8.904;2024-03-23T02:10:36;5.60;;;5.10;;
10637;SDS011;47007;49.252;8.904;2024-03-23T02:11:17;6.18;;;5.68;;
10637;SDS011;47007;49.252;8.904;2024-03-23T02:11:58;6.47;;;5.93;;
10637;SDS011;47007;49.252;8.904;2024-03-23T02:12:39;6.28;;;5.78;;
10637;SDS011;47007;49.252;8.904;2024-03-23T02:13:20;6.43;;;5.80;;
10637;SDS011;47007;49.252;8.904;2024-03-23T02:14:01;6.40;;;5.80;;
10637;SDS011;47007;49.252;8.904;2024-03-23T02:14:42;8.02;;;6.00;;
10637;SDS011;47007;49.252;8.904;2024-03-23T02:15:23;6.50;;;5.93;;
10637;SDS011;47007;49.252;8.904;2024-03-23T02:16:04;6.60;;;6.10;;
10637;SDS011;47007;49.252;8.904;2024-03-23T02:16:45;6.88;;;6.38;;
10637;SDS011;47007;49.252;8.904;2024-03-23T02:17:28;6.85;;;6.13;;
10637;SDS011;47007;49.252;8.904;2024-03-23T02:18:13;7.30;;;6.22;;
10637;SDS011;47007;49.252;8.904;2024-03-23T02:18:54;6.65;;;6.15;;
10637;SDS011;47007;49.252;8.904;2024-03-23T02:19:35;6.82;;;6.32;;
10637;SDS011;47007;49.252;8.904;2024-03-23T02:20:16;7.13;;;6.43;;
10637;SDS011;47007;49.252;8.904;2024-03-23T02:20:56;7.18;;;6.57;;
10637;SDS011;47007;49.252;8.904;2024-03-23T02:21:37;7.25;;;6.63;;
10637;SDS011;47007;49.252;8.904;2024-03-23T02:22:18;6.20;;;5.70;;
10637;SDS011;47007;49.252;8.904;2024-03-23T02:22:59;6.75;;;6.15;;
10637;SDS011;47007;49.252;8.904;2024-03-23T02:23:40;6.28;;;5.78;;
10637;SDS011;47007;49.252;8.904;2024-03-23T02:24:20;6.55;;;5.95;;
10637;SDS011;47007;49.252;8.904;2024-03-23T02:25:02;6.13;;;5.63;;
10637;SDS011;47007;49.252;8.904;2024-03-23T02:25:44;6.00;;;5.47;;
10637;SDS011;47007;49.252;8.904;2024-03-23T02:26:24;6.40;;;5.82;;
10637;SDS011;47007;49.252;8.904;2024-03-23T02:27:05;5.68;;;5.28;;
10637;SDS011;47007;49.252;8.904;2024-03-23T02:27:46;5.75;;;5.25;;
10637;SDS011;47007;49.252;8.904;2024-03-23T02:28:27;5.88;;;5.38;;
10637;SDS011;47007;49.252;8.904;2024-03-23T02:29:08;5.78;;;5.30;;
10637;SDS011;47007;49.252;8.904;2024-03-23T02:29:49;6.32;;;5.82;;
10637;SDS011;47007;49.252;8.904;2024-03-23T02:30:30;6.03;;;5.53;;
10637;SDS011;47007;49.252;8.904;2024-03-23T02:31:11;5.47;;;5.00;;
10637;SDS011;47007;49.252;8.904;2024-03-23T02:31:51;5.93;;;4.82;;
10637;SDS011;47007;49.252;8.904;2024-03-23T02:32:32;5.63;;;5.13;;
10637;SDS011;47007;49.252;8.904;2024-03-23T02:33:13;4.97;;;4.57;;
10637;SDS011;47007;49.252;8.904;2024-03-23T02:33:54;6.45;;;4.63;;
10637;SDS011;47007;49.252;8.904;2024-03-23T02:34:35;4.60;;;4.20;;
10637;SDS011;47007;49.252;8.904;2024-03-23T02:35:16;3.63;;;3.33;;
10637;SDS011;47007;49.252;8.904;2024-03-23T02:35:57;4.38;;;3.25;;
10637;SDS011;47007;49.252;8.904;2024-03-23T02:36:38;3.15;;;2.95;;
10637;SDS011;47007;49.252;8.904;2024-03-23T02:37:19;3.05;;;2.70;;
10637;SDS011;47007;49.252;8.904;2024-03-23T02:37:59;3.63;;;2.83;;
10637;SDS011;47007;49.252;8.904;2024-03-23T02:38:40;3.05;;;2.70;;
10637;SDS011;47007;49.252;8.904;2024-03-23T02:39:21;4.80;;;2.90;;
10637;SDS011;47007;49.252;8.904;2024-03-23T02:40:02;2.85;;;2.40;;
10637;SDS011;47007;49.252;8.904;2024-03-23T02:40:43;2.50;;;2.30;;
10637;SDS011;47007;49.252;8.904;2024-03-23T02:41:24;3.30;;;3.00;;
10637;SDS011;47007;49.252;8.904;2024-03-23T02:42:04;2.85;;;2.65;;
10637;SDS011;47007;49.252;8.904;2024-03-23T02:42:45;2.88;;;2.58;;
10637;SDS011;47007;49.252;8.904;2024-03-23T02:43:26;4.45;;;2.83;;
10637;SDS011;47007;49.252;8.904;2024-03-23T02:44:07;2.80;;;2.58;;
10637;SDS011;47007;49.252;8.904;2024-03-23T02:44:48;3.15;;;2.78;;
10637;SDS011;47007;49.252;8.904;2024-03-23T02:45:29;3.90;;;3.03;;
10637;SDS011;47007;49.252;8.904;2024-03-23T02:46:10;3.13;;;2.83;;
10637;SDS011;47007;49.252;8.904;2024-03-23T02:46:51;3.38;;;2.70;;
10637;SDS011;47007;49.252;8.904;2024-03-23T02:47:31;2.78;;;2.58;;
10637;SDS011;47007;49.252;8.904;2024-03-23T02:48:12;3.20;;;2.90;;
10637;SDS011;47007;49.252;8.904;2024-03-23T02:48:53;2.50;;;2.40;;
10637;SDS011;47007;49.252;8.904;2024-03-23T02:49:34;3.10;;;2.60;;
10637;SDS011;47007;49.252;8.904;2024-03-23T02:50:14;2.72;;;2.53;;
10637;SDS011;47007;49.252;8.904;2024-03-23T02:50:55;3.28;;;2.95;;
10637;SDS011;47007;49.252;8.904;2024-03-23T02:51:36;3.03;;;2.72;;
10637;SDS011;47007;49.252;8.904;2024-03-23T02:52:17;2.75;;;2.55;;
10637;SDS011;47007;49.252;8.904;2024-03-23T02:52:58;3.30;;;3.00;;
10637;SDS011;47007;49.252;8.904;2024-03-23T02:53:39;2.78;;;2.50;;
10637;SDS011;47007;49.252;8.904;2024-03-23T02:54:19;3.53;;;2.72;;
10637;SDS011;47007;49.252;8.904;2024-03-23T02:55:00;2.75;;;2.55;;
10637;SDS011;47007;49.252;8.904;2024-03-23T02:55:42;3.17;;;2.90;;
10637;SDS011;47007;49.252;8.904;2024-03-23T02:56:23;4.10;;;3.30;;
10637;SDS011;47007;49.252;8.904;2024-03-23T02:57:04;2.92;;;2.70;;
10637;SDS011;47007;49.252;8.904;2024-03-23T02:57:45;3.28;;;2.88;;
10637;SDS011;47007;49.252;8.904;2024-03-23T02:58:27;3.45;;;3.15;;
10637;SDS011;47007;49.252;8.904;2024-03-23T02:59:07;4.97;;;3.13;;
10637;SDS011;47007;49.252;8.904;2024-03-23T02:59:48;4.88;;;3.25;;
10637;SDS011;47007;49.252;8.904;2024-03-23T03:00:29;3.53;;;3.22;;
10637;SDS011;47007;49.252;8.904;2024-03-23T03:01:10;3.78;;;3.47;;
10637;SDS011;47007;49.252;8.904;2024-03-23T03:01:51;4.10;;;3.60;;
10637;SDS011;47007;49.252;8.904;2024-03-23T03:02:31;3.92;;;3.60;;
10637;SDS011;47007;49.252;8.904;2024-03-23T03:03:12;3.55;;;3.25;;
10637;SDS011;47007;49.252;8.904;2024-03-23T03:03:53;3.75;;;3.45;;
10637;SDS011;47007;49.252;8.904;2024-03-23T03:04:34;3.50;;;3.20;;
10637;SDS011;47007;49.252;8.904;2024-03-23T03:05:14;4.05;;;3.75;;
10637;SDS011;47007;49.252;8.904;2024-03-23T03:05:55;5.72;;;3.85;;
10637;SDS011;47007;49.252;8.904;2024-03-23T03:06:36;5.53;;;3.70;;
10637;SDS011;47007;49.252;8.904;2024-03-23T03:07:17;4.28;;;3.58;;
10637;SDS011;47007;49.252;8.904;2024-03-23T03:07:58;3.95;;;3.60;;
10637;SDS011;47007;49.252;8.904;2024-03-23T03:08:39;3.55;;;3.28;;
10637;SDS011;47007;49.252;8.904;2024-03-23T03:09:20;4.30;;;3.90;;
10637;SDS011;47007;49.252;8.904;2024-03-23T03:10:01;4.38;;;3.72;;
10637;SDS011;47007;49.252;8.904;2024-03-23T03:10:42;3.58;;;3.38;;
10637;SDS011;47007;49.252;8.904;2024-03-23T03:11:23;4.28;;;3.45;;
10637;SDS011;47007;49.252;8.904;2024-03-23T03:12:04;4.25;;;3.63;;
10637;SDS011;47007;49.252;8.904;2024-03-23T03:12:46;4.47;;;4.07;;
10637;SDS011;47007;49.252;8.904;2024-03-23T03:13:26;3.90;;;3.50;;
10637;SDS011;47007;49.252;8.904;2024-03-23T03:14:07;4.38;;;3.97;;
10637;SDS011;47007;49.252;8.904;2024-03-23T03:14:48;3.55;;;3.25;;
10637;SDS011;47007;49.252;8.904;2024-03-23T03:15:29;3.50;;;3.20;;
10637;SDS011;47007;49.252;8.904;2024-03-23T03:16:10;3.47;;;3.20;;
10637;SDS011;47007;49.252;8.904;2024-03-23T03:16:51;3.92;;;3.53;;
10637;SDS011;47007;49.252;8.904;2024-03-23T03:17:32;3.45;;;3.15;;
10637;SDS011;47007;49.252;8.904;2024-03-23T03:18:12;4.15;;;3.75;;
10637;SDS011;47007;49.252;8.904;2024-03-23T03:18:53;4.25;;;3.70;;
10637;SDS011;47007;49.252;8.904;2024-03-23T03:19:34;4.03;;;3.72;;
10637;SDS011;47007;49.252;8.904;2024-03-23T03:20:15;4.40;;;3.80;;
10637;SDS011;47007;49.252;8.904;2024-03-23T03:20:56;3.97;;;3.58;;
10637;SDS011;47007;49.252;8.904;2024-03-23T03:21:38;4.32;;;3.92;;
10637;SDS011;47007;49.252;8.904;2024-03-23T03:22:18;3.97;;;3.67;;
10637;SDS011;47007;49.252;8.904;2024-03-23T03:22:59;3.80;;;3.50;;
10637;SDS011;47007;49.252;8.904;2024-03-23T03:23:40;5.43;;;4.20;;
10637;SDS011;47007;49.252;8.904;2024-03-23T03:24:21;4.10;;;3.78;;
10637;SDS011;47007;49.252;8.904;2024-03-23T03:25:02;4.05;;;3.65;;
10637;SDS011;47007;49.252;8.904;2024-03-23T03:25:45;4.78;;;3.92;;
10637;SDS011;47007;49.252;8.904;2024-03-23T03:26:26;3.75;;;3.45;;
10637;SDS011;47007;49.252;8.904;2024-03-23T03:27:07;4.15;;;3.83;;
10637;SDS011;47007;49.252;8.904;2024-03-23T03:27:47;4.00;;;3.70;;
10637;SDS011;47007;49.252;8.904;2024-03-23T03:28:28;4.07;;;3.60;;
10637;SDS011;47007;49.252;8.904;2024-03-23T03:29:11;4.25;;;3.85;;
10637;SDS011;47007;49.252;8.904;2024-03-23T03:29:52;4.68;;;4.13;;
10637;SDS011;47007;49.252;8.904;2024-03-23T03:30:32;4.43;;;4.03;;
10637;SDS011;47007;49.252;8.904;2024-03-23T03:31:14;3.97;;;3.67;;
10637;SDS011;47007;49.252;8.904;2024-03-23T03:31:57;3.70;;;3.35;;
10637;SDS011;47007;49.252;8.904;2024-03-23T03:32:38;5.60;;;4.15;;
10637;SDS011;47007;49.252;8.904;2024-03-23T03:33:19;4.55;;;4.15;;
10637;SDS011;47007;49.252;8.904;2024-03-23T03:33:59;4.70;;;4.18;;
10637;SDS011;47007;49.252;8.904;2024-03-23T03:34:40;4.75;;;4.25;;
10637;SDS011;47007;49.252;8.904;2024-03-23T03:35:21;5.13;;;4.13;;
10637;SDS011;47007;49.252;8.904;2024-03-23T03:36:02;4.40;;;4.00;;
10637;SDS011;47007;49.252;8.904;2024-03-23T03:36:42;4.45;;;4.00;;
10637;SDS011;47007;49.252;8.904;2024-03-23T03:37:24;4.43;;;4.03;;
10637;SDS011;47007;49.252;8.904;2024-03-23T03:38:04;4.95;;;4.45;;
10637;SDS011;47007;49.252;8.904;2024-03-23T03:38:45;4.35;;;3.95;;
10637;SDS011;47007;49.252;8.904;2024-03-23T03:39:26;4.88;;;4.47;;
10637;SDS011;47007;49.252;8.904;2024-03-23T03:40:07;4.97;;;4.57;;
10637;SDS011;47007;49.252;8.904;2024-03-23T03:40:49;7.75;;;5.00;;
10637;SDS011;47007;49.252;8.904;2024-03-23T03:41:31;5.15;;;4.30;;
10637;SDS011;47007;49.252;8.904;2024-03-23T03:42:12;5.05;;;4.65;;
10637;SDS011;47007;49.252;8.904;2024-03-23T03:42:52;5.85;;;5.07;;
10637;SDS011;47007;49.252;8.904;2024-03-23T03:43:33;4.80;;;4.38;;
10637;SDS011;47007;49.252;8.904;2024-03-23T03:44:14;6.00;;;4.82;;
10637;SDS011;47007;49.252;8.904;2024-03-23T03:44:55;5.57;;;5.07;;
10637;SDS011;47007;49.252;8.904;2024-03-23T03:45:35;5.15;;;4.65;;
10637;SDS011;47007;49.252;8.904;2024-03-23T03:46:16;5.03;;;4.47;;
10637;SDS011;47007;49.252;8.904;2024-03-23T03:46:57;5.70;;;5.15;;
10637;SDS011;47007;49.252;8.904;2024-03-23T03:47:38;4.78;;;4.30;;
10637;SDS011;47007;49.252;8.904;2024-03-23T03:48:18;5.60;;;5.10;;
10637;SDS011;47007;49.252;8.904;2024-03-23T03:48:59;5.20;;;4.70;;
10637;SDS011;47007;49.252;8.904;2024-03-23T03:49:40;5.30;;;4.80;;
10637;SDS011;47007;49.252;8.904;2024-03-23T03:50:21;6.22;;;4.85;;
10637;SDS011;47007;49.252;8.904;2024-03-23T03:51:03;6.82;;;5.43;;
10637;SDS011;47007;49.252;8.904;2024-03-23T03:51:44;5.25;;;4.65;;
10637;SDS011;47007;49.252;8.904;2024-03-23T03:52:25;5.30;;;4.78;;
10637;SDS011;47007;49.252;8.904;2024-03-23T03:53:06;6.05;;;5.35;;
10637;SDS011;47007;49.252;8.904;2024-03-23T03:53:47;6.00;;;5.13;;
10637;SDS011;47007;49.252;8.904;2024-03-23T03:54:28;7.53;;;5.65;;
10637;SDS011;47007;49.252;8.904;2024-03-23T03:55:12;6.03;;;5.30;;
10637;SDS011;47007;49.252;8.904;2024-03-23T03:55:54;5.85;;;5.28;;
10637;SDS011;47007;49.252;8.904;2024-03-23T03:56:35;5.97;;;5.43;;
10637;SDS011;47007;49.252;8.904;2024-03-23T03:57:16;6.55;;;5.47;;
10637;SDS011;47007;49.252;8.904;2024-03-23T03:57:56;5.85;;;5.30;;
10637;SDS011;47007;49.252;8.904;2024-03-23T03:58:37;5.82;;;5.22;;
10637;SDS011;47007;49.252;8.904;2024-03-23T03:59:19;5.60;;;5.00;;
10637;SDS011;47007;49.252;8.904;2024-03-23T04:00:00;6.07;;;5.47;;
10637;SDS011;47007;49.252;8.904;2024-03-23T04:00:41;5.82;;;5.32;;
10637;SDS011;47007;49.252;8.904;2024-03-23T04:01:22;6.57;;;5.25;;
10637;SDS011;47007;49.252;8.904;2024-03-23T04:02:03;5.78;;;5.28;;
10637;SDS011;47007;49.252;8.904;2024-03-23T04:02:44;6.35;;;5.65;;
10637;SDS011;47007;49.252;8.904;2024-03-23T04:03:24;6.25;;;5.68;;
10637;SDS011;47007;49.252;8.904;2024-03-23T04:04:05;6.25;;;5.70;;
10637;SDS011;47007;49.252;8.904;2024-03-23T04:04:46;6.13;;;5.53;;
10637;SDS011;47007;49.252;8.904;2024-03-23T04:05:28;6.53;;;5.90;;
10637;SDS011;47007;49.252;8.904;2024-03-23T04:06:11;5.95;;;5.35;;
10637;SDS011;47007;49.252;8.904;2024-03-23T04:07:01;6.70;;;5.93;;
10637;SDS011;47007;49.252;8.904;2024-03-23T04:07:42;8.20;;;6.50;;
10637;SDS011;47007;49.252;8.904;2024-03-23T04:08:24;7.13;;;6.43;;
10637;SDS011;47007;49.252;8.904;2024-03-23T04:09:05;8.07;;;6.13;;
10637;SDS011;47007;49.252;8.904;2024-03-23T04:09:46;9.15;;;6.90;;
10637;SDS011;47007;49.252;8.904;2024-03-23T04:10:27;7.47;;;6.70;;
10637;SDS011;47007;49.252;8.904;2024-03-23T04:11:08;7.53;;;6.35;;
10637;SDS011;47007;49.252;8.904;2024-03-23T04:11:49;7.53;;;6.10;;
10637;SDS011;47007;49.252;8.904;2024-03-23T04:12:29;7.22;;;6.40;;
10637;SDS011;47007;49.252;8.904;2024-03-23T04:13:10;7.43;;;6.72;;
10637;SDS011;47007;49.252;8.904;2024-03-23T04:13:52;7.35;;;6.65;;
10637;SDS011;47007;49.252;8.904;2024-03-23T04:14:32;7.78;;;6.38;;
10637;SDS011;47007;49.252;8.904;2024-03-23T04:15:13;6.72;;;6.03;;
10637;SDS011;47007;49.252;8.904;2024-03-23T04:15:55;6.78;;;6.13;;
10637;SDS011;47007;49.252;8.904;2024-03-23T04:16:36;6.97;;;6.43;;
10637;SDS011;47007;49.252;8.904;2024-03-23T04:17:17;8.38;;;5.97;;
10637;SDS011;47007;49.252;8.904;2024-03-23T04:17:57;7.10;;;6.50;;
10637;SDS011;47007;49.252;8.904;2024-03-23T04:18:38;6.85;;;6.13;;
10637;SDS011;47007;49.252;8.904;2024-03-23T04:19:19;8.48;;;6.65;;
10637;SDS011;47007;49.252;8.904;2024-03-23T04:20:00;7.05;;;6.35;;
10637;SDS011;47007;49.252;8.904;2024-03-23T04:20:41;7.15;;;6.07;;
10637;SDS011;47007;49.252;8.904;2024-03-23T04:21:22;6.72;;;6.07;;
10637;SDS011;47007;49.252;8.904;2024-03-23T04:22:03;7.18;;;6.38;;
10637;SDS011;47007;49.252;8.904;2024-03-23T04:22:44;7.03;;;6.32;;
10637;SDS011;47007;49.252;8.904;2024-03-23T04:23:25;7.13;;;6.18;;
10637;SDS011;47007;49.252;8.904;2024-03-23T04:24:05;6.97;;;6.28;;
10637;SDS011;47007;49.252;8.904;2024-03-23T04:24:46;6.80;;;6.10;;
10637;SDS011;47007;49.252;8.904;2024-03-23T04:25:27;8.82;;;6.70;;
10637;SDS011;47007;49.252;8.904;2024-03-23T04:26:08;7.35;;;6.65;;
10637;SDS011;47007;49.252;8.904;2024-03-23T04:26:48;8.13;;;6.50;;
10637;SDS011;47007;49.252;8.904;2024-03-23T04:27:29;6.70;;;6.00;;
10637;SDS011;47007;49.252;8.904;2024-03-23T04:28:10;6.95;;;6.13;;
10637;SDS011;47007;49.252;8.904;2024-03-23T04:28:51;6.93;;;6.22;;
10637;SDS011;47007;49.252;8.904;2024-03-23T04:29:31;7.43;;;6.13;;
10637;SDS011;47007;49.252;8.904;2024-03-23T04:30:12;6.53;;;5.88;;
10637;SDS011;47007;49.252;8.904;2024-03-23T04:30:53;6.85;;;6.03;;
10637;SDS011;47007;49.252;8.904;2024-03-23T04:31:34;6.72;;;6.13;;
10637;SDS011;47007;49.252;8.904;2024-03-23T04:32:15;6.50;;;5.90;;
10637;SDS011;47007;49.252;8.904;2024-03-23T04:32:56;7.30;;;6.55;;
10637;SDS011;47007;49.252;8.904;2024-03-23T04:33:38;7.20;;;6.45;;
10637;SDS011;47007;49.252;8.904;2024-03-23T04:34:19;7.35;;;6.65;;
10637;SDS011;47007;49.252;8.904;2024-03-23T04:35:00;7.95;;;6.75;;
10637;SDS011;47007;49.252;8.904;2024-03-23T04:35:41;7.28;;;6.60;;
10637;SDS011;47007;49.252;8.904;2024-03-23T04:36:22;6.57;;;5.97;;
10637;SDS011;47007;49.252;8.904;2024-03-23T04:37:02;6.63;;;5.93;;
10637;SDS011;47007;49.252;8.904;2024-03-23T04:37:45;7.28;;;6.45;;
10637;SDS011;47007;49.252;8.904;2024-03-23T04:38:25;7.28;;;6.57;;
10637;SDS011;47007;49.252;8.904;2024-03-23T04:39:06;7.97;;;7.18;;
10637;SDS011;47007;49.252;8.904;2024-03-23T04:39:49;7.63;;;6.93;;
10637;SDS011;47007;49.252;8.904;2024-03-23T04:40:29;8.27;;;6.65;;
10637;SDS011;47007;49.252;8.904;2024-03-23T04:41:10;7.95;;;7.15;;
10637;SDS011;47007;49.252;8.904;2024-03-23T04:41:51;7.43;;;6.72;;
10637;SDS011;47007;49.252;8.904;2024-03-23T04:42:32;8.30;;;7.50;;
10637;SDS011;47007;49.252;8.904;2024-03-23T04:43:12;7.90;;;7.20;;
10637;SDS011;47007;49.252;8.904;2024-03-23T04:43:54;8.52;;;7.53;;
10637;SDS011;47007;49.252;8.904;2024-03-23T04:44:34;7.82;;;7.03;;
10637;SDS011;47007;49.252;8.904;2024-03-23T04:45:15;8.15;;;7.35;;
10637;SDS011;47007;49.252;8.904;2024-03-23T04:45:56;8.43;;;7.63;;
10637;SDS011;47007;49.252;8.904;2024-03-23T04:46:37;8.45;;;7.63;;
10637;SDS011;47007;49.252;8.904;2024-03-23T04:47:17;7.82;;;7.13;;
10637;SDS011;47007;49.252;8.904;2024-03-23T04:47:58;9.57;;;7.82;;
10637;SDS011;47007;49.252;8.904;2024-03-23T04:48:39;8.77;;;7.97;;
10637;SDS011;47007;49.252;8.904;2024-03-23T04:49:20;8.00;;;7.20;;
10637;SDS011;47007;49.252;8.904;2024-03-23T04:50:01;8.68;;;7.80;;
10637;SDS011;47007;49.252;8.904;2024-03-23T04:50:43;8.05;;;7.25;;
10637;SDS011;47007;49.252;8.904;2024-03-23T04:51:23;8.32;;;7.35;;
10637;SDS011;47007;49.252;8.904;2024-03-23T04:52:04;8.27;;;7.28;;
10637;SDS011;47007;49.252;8.904;2024-03-23T04:52:45;8.65;;;7.85;;
10637;SDS011;47007;49.252;8.904;2024-03-23T04:53:26;9.05;;;8.00;;
10637;SDS011;47007;49.252;8.904;2024-03-23T04:54:09;8.95;;;7.53;;
10637;SDS011;47007;49.252;8.904;2024-03-23T04:54:50;7.82;;;7.03;;
10637;SDS011;47007;49.252;8.904;2024-03-23T04:55:30;9.50;;;8.32;;
10637;SDS011;47007;49.252;8.904;2024-03-23T04:56:12;8.23;;;7.43;;
10637;SDS011;47007;49.252;8.904;2024-03-23T04:56:53;8.13;;;7.30;;
10637;SDS011;47007;49.252;8.904;2024-03-23T04:57:33;8.32;;;7.53;;
10637;SDS011;47007;49.252;8.904;2024-03-23T04:58:14;8.38;;;7.25;;
10637;SDS011;47007;49.252;8.904;2024-03-23T04:58:55;9.23;;;7.50;;
10637;SDS011;47007;49.252;8.904;2024-03-23T04:59:41;8.45;;;7.60;;
10637;SDS011;47007;49.252;8.904;2024-03-23T05:00:22;8.50;;;7.65;;